createdAt,value
2023-03-05T00:01:36.155Z,102396.19
2023-03-05T00:04:04.387Z,102393.50
2023-03-05T00:06:33.521Z,102389.81
2023-03-05T00:09:00.505Z,102381.13
2023-03-05T00:11:28.363Z,102389.19
2023-03-05T00:13:55.930Z,102375.88
2023-03-05T00:16:30.417Z,102377.63
2023-03-05T00:18:59.186Z,102377.63
2023-03-05T00:21:34.921Z,102375.19
2023-03-05T00:24:02.549Z,102363.63
2023-03-05T00:26:32.058Z,102364.47
2023-03-05T00:28:58.618Z,102372.38
2023-03-05T00:31:27.749Z,102365.03
2023-03-05T00:33:57.027Z,102363.41
2023-03-05T00:36:25.962Z,102359.78
2023-03-05T00:38:52.645Z,102358.72
2023-03-05T00:41:19.359Z,102353.63
2023-03-05T00:43:48.375Z,102347.56
2023-03-05T00:46:14.949Z,102348.88
2023-03-05T00:48:46.455Z,102340.00
2023-03-05T00:51:14.044Z,102344.47
2023-03-05T00:53:46.553Z,102345.06
2023-03-05T00:56:12.947Z,102342.78
2023-03-05T00:58:39.760Z,102349.16
2023-03-05T01:01:06.760Z,102346.69
2023-03-05T01:03:35.016Z,102338.91
2023-03-05T01:06:05.502Z,102348.81
2023-03-05T01:08:35.780Z,102339.03
2023-03-05T01:11:04.214Z,102335.63
2023-03-05T01:13:37.138Z,102339.19
2023-03-05T01:16:04.171Z,102332.13
2023-03-05T01:18:30.622Z,102324.25
2023-03-05T01:20:57.043Z,102315.16
2023-03-05T01:23:23.414Z,102323.78
2023-03-05T01:25:54.742Z,102316.06
2023-03-05T01:28:21.318Z,102320.59
2023-03-05T01:30:48.018Z,102312.56
2023-03-05T01:33:19.095Z,102306.16
2023-03-05T01:35:55.598Z,102298.41
2023-03-05T01:38:23.662Z,102303.41
2023-03-05T01:40:50.031Z,102298.00
2023-03-05T01:43:29.018Z,102298.00
2023-03-05T01:46:23.316Z,102293.59
2023-03-05T01:49:15.009Z,102278.66
2023-03-05T01:52:00.488Z,102271.88
2023-03-05T01:54:32.681Z,102272.69
2023-03-05T01:57:04.935Z,102259.31
2023-03-05T01:59:33.954Z,102261.56
2023-03-05T02:02:00.380Z,102261.38
2023-03-05T02:04:36.211Z,102264.97
2023-03-05T02:07:05.804Z,102253.44
2023-03-05T02:09:32.456Z,102250.84
2023-03-05T02:11:59.377Z,102246.44
2023-03-05T02:14:26.830Z,102248.97
2023-03-05T02:16:53.349Z,102244.38
2023-03-05T02:19:19.849Z,102242.44
2023-03-05T02:21:48.390Z,102237.16
2023-03-05T02:24:32.464Z,102232.53
2023-03-05T02:26:59.940Z,102228.66
2023-03-05T02:29:30.569Z,102225.03
2023-03-05T02:31:57.165Z,102221.00
2023-03-05T02:34:28.920Z,102218.34
2023-03-05T02:36:55.293Z,102219.28
2023-03-05T02:39:21.675Z,102212.25
2023-03-05T02:41:48.029Z,102207.91
2023-03-05T02:44:14.353Z,102208.75
2023-03-05T02:46:40.728Z,102204.22
2023-03-05T02:49:07.102Z,102212.09
2023-03-05T02:51:33.497Z,102206.50
2023-03-05T02:53:59.868Z,102197.50
2023-03-05T02:56:26.447Z,102196.44
2023-03-05T02:58:52.788Z,102193.09
2023-03-05T03:01:19.242Z,102186.72
2023-03-05T03:03:45.645Z,102179.66
2023-03-05T03:06:11.975Z,102176.22
2023-03-05T03:08:38.389Z,102175.56
2023-03-05T03:11:06.752Z,102172.81
2023-03-05T03:13:53.291Z,102167.41
2023-03-05T03:16:20.914Z,102167.69
2023-03-05T03:18:49.577Z,102155.09
2023-03-05T03:21:24.516Z,102160.16
2023-03-05T03:23:55.225Z,102153.81
2023-03-05T03:26:21.885Z,102148.88
2023-03-05T03:28:48.322Z,102155.22
2023-03-05T03:31:16.098Z,102153.72
2023-03-05T03:33:42.622Z,102154.56
2023-03-05T03:36:11.776Z,102148.41
2023-03-05T03:38:40.604Z,102156.44
2023-03-05T03:41:09.514Z,102144.22
2023-03-05T03:43:47.554Z,102139.94
2023-03-05T03:46:16.643Z,102143.41
2023-03-05T03:48:42.992Z,102138.19
2023-03-05T03:51:09.352Z,102124.16
2023-03-05T03:53:35.935Z,102131.09
2023-03-05T03:56:02.525Z,102119.56
2023-03-05T03:58:30.521Z,102118.59
2023-03-05T04:00:57.132Z,102112.28
2023-03-05T04:03:24.728Z,102113.25
2023-03-05T04:05:51.171Z,102122.81
2023-03-05T04:08:17.590Z,102117.53
2023-03-05T04:10:44.587Z,102108.25
2023-03-05T04:13:12.166Z,102117.00
2023-03-05T04:15:38.581Z,102106.38
2023-03-05T04:18:06.321Z,102112.47
2023-03-05T04:20:35.366Z,102111.41
2023-03-05T04:23:10.759Z,102109.06
2023-03-05T04:25:37.106Z,102107.34
2023-03-05T04:28:04.675Z,102105.31
2023-03-05T04:30:33.520Z,102098.19
2023-03-05T04:32:59.844Z,102095.00
2023-03-05T04:35:26.603Z,102086.97
2023-03-05T04:37:56.149Z,102093.28
2023-03-05T04:40:22.601Z,102087.94
2023-03-05T04:42:49.020Z,102090.69
2023-03-05T04:45:15.432Z,102087.13
2023-03-05T04:47:41.796Z,102083.56
2023-03-05T04:50:11.536Z,102082.72
2023-03-05T04:52:40.506Z,102081.13
2023-03-05T04:55:08.909Z,102075.03
2023-03-05T04:57:46.028Z,102069.97
2023-03-05T05:00:14.750Z,102064.56
2023-03-05T05:02:43.275Z,102065.53
2023-03-05T05:05:13.260Z,102062.06
2023-03-05T05:07:41.323Z,102067.34
2023-03-05T05:10:10.458Z,102066.44
2023-03-05T05:12:37.496Z,102065.75
2023-03-05T05:15:08.100Z,102052.56
2023-03-05T05:17:34.774Z,102062.34
2023-03-05T05:20:02.342Z,102058.81
2023-03-05T05:22:29.243Z,102049.78
2023-03-05T05:25:04.314Z,102048.97
2023-03-05T05:27:30.802Z,102053.69
2023-03-05T05:29:59.176Z,102051.06
2023-03-05T05:32:30.555Z,102036.75
2023-03-05T05:35:00.334Z,102048.09
2023-03-05T05:37:28.398Z,102049.06
2023-03-05T05:39:54.794Z,102028.22
2023-03-05T05:42:24.305Z,102036.88
2023-03-05T05:44:50.828Z,102027.34
2023-03-05T05:47:26.370Z,102035.34
2023-03-05T05:49:52.855Z,102039.06
2023-03-05T05:52:21.936Z,102032.81
2023-03-05T05:54:49.099Z,102035.28
2023-03-05T05:57:15.686Z,102020.25
2023-03-05T05:59:42.080Z,102023.13
2023-03-05T06:02:10.927Z,102025.69
2023-03-05T06:04:37.685Z,102022.72
2023-03-05T06:07:05.190Z,102029.53
2023-03-05T06:09:31.552Z,102029.53
2023-03-05T06:12:00.320Z,102029.44
2023-03-05T06:14:28.966Z,102021.28
2023-03-05T06:16:55.377Z,102023.09
2023-03-05T06:19:21.739Z,102022.31
2023-03-05T06:21:51.746Z,102026.56
2023-03-05T06:24:18.202Z,102029.44
2023-03-05T06:26:47.638Z,102021.19
2023-03-05T06:29:13.954Z,102017.88
2023-03-05T06:31:41.150Z,102018.03
2023-03-05T06:34:07.501Z,102018.16
2023-03-05T06:36:41.373Z,102020.03
2023-03-05T06:39:12.762Z,102009.47
2023-03-05T06:41:39.112Z,102021.91
2023-03-05T06:44:06.688Z,102027.41
2023-03-05T06:46:36.029Z,102017.59
2023-03-05T06:49:03.449Z,102017.34
2023-03-05T06:51:32.950Z,102022.56
2023-03-05T06:54:04.517Z,102020.53
2023-03-05T06:56:31.308Z,102019.63
2023-03-05T06:58:58.157Z,102010.56
2023-03-05T07:01:24.593Z,102018.34
2023-03-05T07:03:54.620Z,102014.84
2023-03-05T07:06:22.191Z,102012.69
2023-03-05T07:08:52.006Z,102007.84
2023-03-05T07:11:20.651Z,102008.38
2023-03-05T07:13:47.748Z,101995.13
2023-03-05T07:16:17.473Z,102011.53
2023-03-05T07:18:44.613Z,102010.41
2023-03-05T07:21:15.812Z,102009.50
2023-03-05T07:23:42.170Z,102004.16
2023-03-05T07:26:09.334Z,102015.75
2023-03-05T07:28:35.733Z,102003.44
2023-03-05T07:31:07.451Z,102004.28
2023-03-05T07:33:34.753Z,102006.34
2023-03-05T07:36:01.417Z,102011.19
2023-03-05T07:38:28.122Z,102009.84
2023-03-05T07:40:54.493Z,102011.59
2023-03-05T07:43:23.569Z,102005.72
2023-03-05T07:45:49.906Z,101993.72
2023-03-05T07:48:18.511Z,101989.19
2023-03-05T07:50:45.239Z,102002.31
2023-03-05T07:53:14.530Z,101999.94
2023-03-05T07:55:50.522Z,101995.63
2023-03-05T07:58:17.982Z,101998.78
2023-03-05T08:00:45.625Z,102000.13
2023-03-05T08:03:12.008Z,101996.03
2023-03-05T08:05:42.268Z,101997.31
2023-03-05T08:08:11.685Z,101987.91
2023-03-05T08:10:38.166Z,101987.28
2023-03-05T08:13:05.007Z,101984.59
2023-03-05T08:15:31.678Z,101985.00
2023-03-05T08:17:58.562Z,101982.69
2023-03-05T08:20:24.865Z,101987.34
2023-03-05T08:22:51.219Z,101981.06
2023-03-05T08:25:17.651Z,101974.56
2023-03-05T08:27:45.461Z,101975.75
2023-03-05T08:30:16.889Z,101975.25
2023-03-05T08:32:43.298Z,101980.06
2023-03-05T08:35:10.132Z,101970.78
2023-03-05T08:37:37.045Z,101967.91
2023-03-05T08:40:06.396Z,101966.28
2023-03-05T08:42:32.783Z,101962.28
2023-03-05T08:45:00.234Z,101964.97
2023-03-05T08:47:26.845Z,101960.44
2023-03-05T08:49:53.612Z,101959.91
2023-03-05T08:52:19.897Z,101958.88
2023-03-05T08:54:48.815Z,101945.69
2023-03-05T08:57:17.545Z,101952.97
2023-03-05T08:59:46.566Z,101956.88
2023-03-05T09:02:13.529Z,101946.63
2023-03-05T09:04:43.096Z,101935.44
2023-03-05T09:07:18.018Z,101936.44
2023-03-05T09:09:48.535Z,101933.34
2023-03-05T09:12:21.550Z,101925.56
2023-03-05T09:14:50.541Z,101930.91
2023-03-05T09:17:19.885Z,101925.56
2023-03-05T09:19:46.212Z,101934.97
2023-03-05T09:22:12.576Z,101939.56
2023-03-05T09:24:41.622Z,101930.81
2023-03-05T09:27:08.043Z,101933.63
2023-03-05T09:29:34.531Z,101925.28
2023-03-05T09:32:01.080Z,101929.41
2023-03-05T09:34:29.301Z,101932.47
2023-03-05T09:36:55.616Z,101930.84
2023-03-05T09:39:24.801Z,101922.50
2023-03-05T09:42:00.643Z,101927.44
2023-03-05T09:44:57.990Z,101930.44
2023-03-05T09:48:16.795Z,101925.91
2023-03-05T09:51:03.476Z,101924.81
2023-03-05T09:53:46.544Z,101926.78
2023-03-05T09:56:22.685Z,101924.00
2023-03-05T09:59:01.962Z,101919.84
2023-03-05T10:01:38.323Z,101914.72
2023-03-05T10:04:12.865Z,101911.84
2023-03-05T10:07:08.716Z,101903.94
2023-03-05T10:10:16.335Z,101908.97
2023-03-05T10:12:53.795Z,101904.44
2023-03-05T10:15:55.864Z,101889.78
2023-03-05T10:18:30.590Z,101896.63
2023-03-05T10:21:00.958Z,101892.09
2023-03-05T10:23:31.979Z,101884.69
2023-03-05T10:26:09.727Z,101889.31
2023-03-05T10:29:05.370Z,101877.50
2023-03-05T10:31:58.389Z,101875.28
2023-03-05T10:34:55.494Z,101872.97
2023-03-05T10:37:54.162Z,101870.88
2023-03-05T10:40:45.542Z,101872.09
2023-03-05T10:43:34.859Z,101871.84
2023-03-05T10:46:04.672Z,101863.50
2023-03-05T10:48:43.443Z,101851.41
2023-03-05T10:51:19.085Z,101857.63
2023-03-05T10:53:50.441Z,101851.63
2023-03-05T10:56:23.790Z,101852.00
2023-03-05T10:58:50.243Z,101842.88
2023-03-05T11:01:21.615Z,101852.38
2023-03-05T11:03:59.924Z,101839.09
2023-03-05T11:06:38.109Z,101835.44
2023-03-05T11:09:32.176Z,101832.06
2023-03-05T11:12:15.485Z,101829.16
2023-03-05T11:15:05.476Z,101826.50
2023-03-05T11:17:42.324Z,101822.56
2023-03-05T11:20:26.838Z,101817.91
2023-03-05T11:23:05.409Z,101816.59
2023-03-05T11:25:34.268Z,101812.09
2023-03-05T11:28:02.266Z,101799.69
2023-03-05T11:30:36.814Z,101806.09
2023-03-05T11:33:20.653Z,101804.44
2023-03-05T11:35:49.159Z,101803.06
2023-03-05T11:38:35.108Z,101787.88
2023-03-05T11:41:01.755Z,101785.34
2023-03-05T11:43:30.005Z,101781.09
2023-03-05T11:46:05.075Z,101774.47
2023-03-05T11:48:44.491Z,101778.06
2023-03-05T11:51:40.652Z,101777.47
2023-03-05T11:54:12.741Z,101778.53
2023-03-05T11:56:42.938Z,101767.19
2023-03-05T11:59:23.140Z,101759.44
2023-03-05T12:01:52.594Z,101754.53
2023-03-05T12:04:20.256Z,101751.25
2023-03-05T12:06:55.706Z,101739.56
2023-03-05T12:09:42.401Z,101741.75
2023-03-05T12:12:38.738Z,101738.34
2023-03-05T12:15:32.926Z,101727.56
2023-03-05T12:18:26.820Z,101721.53
2023-03-05T12:20:59.170Z,101724.06
2023-03-05T12:23:32.841Z,101715.13
2023-03-05T12:26:01.766Z,101704.03
2023-03-05T12:28:33.943Z,101704.47
2023-03-05T12:31:06.059Z,101699.97
2023-03-05T12:33:46.990Z,101690.97
2023-03-05T12:36:25.018Z,101692.16
2023-03-05T12:38:56.911Z,101679.34
2023-03-05T12:41:23.161Z,101676.94
2023-03-05T12:44:04.830Z,101673.00
2023-03-05T12:46:39.053Z,101673.38
2023-03-05T12:49:28.484Z,101664.78
2023-03-05T12:52:05.753Z,101666.25
2023-03-05T12:54:37.722Z,101666.19
2023-03-05T12:57:15.384Z,101662.22
2023-03-05T12:59:58.500Z,101662.03
2023-03-05T13:02:39.349Z,101654.31
2023-03-05T13:05:26.288Z,101644.53
2023-03-05T13:08:08.699Z,101643.78
2023-03-05T13:10:34.923Z,101642.53
2023-03-05T13:13:01.358Z,101627.31
2023-03-05T13:15:38.675Z,101622.91
2023-03-05T13:18:05.814Z,101627.06
2023-03-05T13:20:37.937Z,101619.28
2023-03-05T13:23:20.062Z,101618.44
2023-03-05T13:25:59.608Z,101618.66
2023-03-05T13:28:26.744Z,101611.63
2023-03-05T13:30:57.017Z,101603.38
2023-03-05T13:33:30.143Z,101607.66
2023-03-05T13:35:56.659Z,101599.53
2023-03-05T13:38:31.402Z,101593.88
2023-03-05T13:41:07.083Z,101597.97
2023-03-05T13:43:44.162Z,101598.88
2023-03-05T13:46:10.924Z,101590.16
2023-03-05T13:48:37.383Z,101584.47
2023-03-05T13:51:04.205Z,101582.31
2023-03-05T13:53:40.352Z,101585.75
2023-03-05T13:56:12.471Z,101581.56
2023-03-05T13:58:47.888Z,101582.97
2023-03-05T14:01:28.691Z,101574.25
2023-03-05T14:04:05.078Z,101579.41
2023-03-05T14:06:32.645Z,101570.72
2023-03-05T14:09:24.360Z,101567.28
2023-03-05T14:12:00.914Z,101575.25
2023-03-05T14:14:28.962Z,101566.31
2023-03-05T14:16:55.684Z,101559.84
2023-03-05T14:19:35.391Z,101558.59
2023-03-05T14:22:06.134Z,101546.34
2023-03-05T14:24:33.003Z,101538.63
2023-03-05T14:27:06.103Z,101533.50
2023-03-05T14:29:32.789Z,101529.38
2023-03-05T14:32:02.591Z,101521.50
2023-03-05T14:34:36.546Z,101515.97
2023-03-05T14:37:21.590Z,101514.00
2023-03-05T14:39:55.620Z,101514.72
2023-03-05T14:42:30.681Z,101514.09
2023-03-05T14:45:09.608Z,101522.38
2023-03-05T14:47:38.549Z,101506.75
2023-03-05T14:50:07.343Z,101504.44
2023-03-05T14:52:36.721Z,101512.69
2023-03-05T14:55:06.893Z,101505.88
2023-03-05T14:57:33.487Z,101501.78
2023-03-05T14:59:59.792Z,101496.28
2023-03-05T15:02:29.135Z,101497.59
2023-03-05T15:04:55.593Z,101498.41
2023-03-05T15:07:34.383Z,101500.00
2023-03-05T15:10:06.557Z,101493.97
2023-03-05T15:12:33.095Z,101487.16
2023-03-05T15:14:59.501Z,101481.44
2023-03-05T15:17:36.461Z,101484.66
2023-03-05T15:20:05.377Z,101476.78
2023-03-05T15:22:31.673Z,101471.09
2023-03-05T15:24:58.247Z,101480.47
2023-03-05T15:27:26.798Z,101469.59
2023-03-05T15:30:00.390Z,101464.53
2023-03-05T15:32:30.029Z,101484.69
2023-03-05T15:34:57.190Z,101467.34
2023-03-05T15:37:23.691Z,101467.34
2023-03-05T15:39:50.046Z,101463.13
2023-03-05T15:42:17.699Z,101456.31
2023-03-05T15:44:44.413Z,101450.69
2023-03-05T15:47:10.938Z,101440.88
2023-03-05T15:49:37.258Z,101445.91
2023-03-05T15:52:03.791Z,101447.81
2023-03-05T15:54:30.074Z,101444.16
2023-03-05T15:56:56.410Z,101442.50
2023-03-05T15:59:22.734Z,101432.91
2023-03-05T16:01:54.148Z,101439.44
2023-03-05T16:04:20.583Z,101426.88
2023-03-05T16:06:49.301Z,101420.97
2023-03-05T16:09:17.592Z,101427.09
2023-03-05T16:11:44.612Z,101419.81
2023-03-05T16:14:11.514Z,101423.47
2023-03-05T16:16:41.202Z,101415.59
2023-03-05T16:19:11.010Z,101416.84
2023-03-05T16:21:37.547Z,101408.69
2023-03-05T16:24:04.002Z,101403.69
2023-03-05T16:26:30.468Z,101403.63
2023-03-05T16:28:56.849Z,101408.88
2023-03-05T16:31:23.428Z,101405.44
2023-03-05T16:33:49.800Z,101401.22
2023-03-05T16:36:16.444Z,101397.09
2023-03-05T16:38:42.999Z,101401.00
2023-03-05T16:41:09.366Z,101390.84
2023-03-05T16:43:38.463Z,101385.38
2023-03-05T16:46:05.007Z,101387.13
2023-03-05T16:48:31.481Z,101383.56
2023-03-05T16:50:59.514Z,101376.66
2023-03-05T16:53:25.862Z,101373.69
2023-03-05T16:55:52.476Z,101372.81
2023-03-05T16:58:18.892Z,101374.47
2023-03-05T17:00:46.438Z,101368.00
2023-03-05T17:03:12.772Z,101375.19
2023-03-05T17:05:41.384Z,101362.19
2023-03-05T17:08:07.798Z,101366.03
2023-03-05T17:10:34.288Z,101364.75
2023-03-05T17:13:00.665Z,101356.03
2023-03-05T17:15:27.108Z,101360.53
2023-03-05T17:17:54.592Z,101356.16
2023-03-05T17:20:21.141Z,101364.22
2023-03-05T17:22:48.893Z,101359.00
2023-03-05T17:25:18.021Z,101360.84
2023-03-05T17:27:44.425Z,101361.31
2023-03-05T17:30:11.287Z,101357.28
2023-03-05T17:32:40.429Z,101361.53
2023-03-05T17:35:23.008Z,101357.88
2023-03-05T17:37:49.954Z,101351.38
2023-03-05T17:40:17.466Z,101357.25
2023-03-05T17:42:43.926Z,101364.81
2023-03-05T17:45:11.180Z,101352.47
2023-03-05T17:47:38.875Z,101348.66
2023-03-05T17:50:09.456Z,101359.19
2023-03-05T17:52:36.774Z,101352.50
2023-03-05T17:55:10.296Z,101352.69
2023-03-05T17:57:39.259Z,101355.94
2023-03-05T18:00:15.452Z,101345.78
2023-03-05T18:02:44.440Z,101355.38
2023-03-05T18:05:11.952Z,101347.03
2023-03-05T18:07:42.175Z,101350.50
2023-03-05T18:10:11.754Z,101348.22
2023-03-05T18:12:38.449Z,101346.78
2023-03-05T18:15:10.311Z,101339.41
2023-03-05T18:17:38.189Z,101349.47
2023-03-05T18:20:07.970Z,101347.19
2023-03-05T18:22:35.417Z,101341.41
2023-03-05T18:25:06.022Z,101341.72
2023-03-05T18:27:42.556Z,101342.28
2023-03-05T18:30:09.762Z,101338.28
2023-03-05T18:32:36.113Z,101341.94
2023-03-05T18:35:04.909Z,101337.13
2023-03-05T18:37:33.852Z,101344.41
2023-03-05T18:40:00.396Z,101340.84
2023-03-05T18:42:26.946Z,101338.06
2023-03-05T18:44:54.506Z,101329.56
2023-03-05T18:47:23.885Z,101329.88
2023-03-05T18:49:53.858Z,101325.63
2023-03-05T18:52:20.341Z,101321.44
2023-03-05T18:54:49.540Z,101315.22
2023-03-05T18:57:18.191Z,101325.28
2023-03-05T18:59:44.749Z,101321.03
2023-03-05T19:02:19.420Z,101317.88
2023-03-05T19:04:45.733Z,101306.22
2023-03-05T19:07:22.466Z,101309.75
2023-03-05T19:09:57.071Z,101304.59
2023-03-05T19:12:29.050Z,101306.50
2023-03-05T19:14:55.407Z,101303.81
2023-03-05T19:17:21.807Z,101302.22
2023-03-05T19:19:56.057Z,101298.97
2023-03-05T19:22:22.409Z,101295.59
2023-03-05T19:24:50.793Z,101292.50
2023-03-05T19:27:17.172Z,101288.22
2023-03-05T19:29:49.388Z,101287.34
2023-03-05T19:32:17.653Z,101282.97
2023-03-05T19:34:44.579Z,101274.81
2023-03-05T19:37:14.083Z,101277.50
2023-03-05T19:39:48.270Z,101276.81
2023-03-05T19:42:14.818Z,101275.84
2023-03-05T19:44:41.281Z,101265.03
2023-03-05T19:47:07.932Z,101261.63
2023-03-05T19:49:37.182Z,101264.66
2023-03-05T19:52:04.225Z,101254.81
2023-03-05T19:54:35.290Z,101259.50
2023-03-05T19:57:01.658Z,101258.16
2023-03-05T19:59:28.062Z,101253.75
2023-03-05T20:01:54.529Z,101246.97
2023-03-05T20:04:22.800Z,101245.06
2023-03-05T20:06:55.423Z,101251.34
2023-03-05T20:09:21.728Z,101243.31
2023-03-05T20:11:48.113Z,101238.16
2023-03-05T20:14:14.663Z,101240.84
2023-03-05T20:16:42.310Z,101242.47
2023-03-05T20:19:14.767Z,101233.94
2023-03-05T20:21:44.442Z,101245.25
2023-03-05T20:24:14.064Z,101243.72
2023-03-05T20:26:42.177Z,101237.47
2023-03-05T20:29:19.753Z,101239.47
2023-03-05T20:31:46.867Z,101233.28
2023-03-05T20:34:15.712Z,101231.44
2023-03-05T20:36:43.292Z,101227.41
2023-03-05T20:39:15.908Z,101234.50
2023-03-05T20:41:48.567Z,101231.75
2023-03-05T20:44:15.160Z,101226.09
2023-03-05T20:46:49.997Z,101224.56
2023-03-05T20:49:16.516Z,101218.66
2023-03-05T20:51:43.078Z,101215.56
2023-03-05T20:54:12.648Z,101215.75
2023-03-05T20:56:39.079Z,101212.09
2023-03-05T20:59:07.837Z,101214.72
2023-03-05T21:01:37.729Z,101208.28
2023-03-05T21:04:09.313Z,101197.59
2023-03-05T21:06:38.545Z,101209.94
2023-03-05T21:09:08.158Z,101196.72
2023-03-05T21:11:34.502Z,101194.91
2023-03-05T21:14:01.168Z,101204.69
2023-03-05T21:16:29.957Z,101198.66
2023-03-05T21:18:59.210Z,101196.66
2023-03-05T21:21:28.485Z,101191.56
2023-03-05T21:23:58.511Z,101194.13
2023-03-05T21:26:24.872Z,101180.84
2023-03-05T21:28:51.298Z,101171.47
2023-03-05T21:31:20.333Z,101177.69
2023-03-05T21:33:59.321Z,101166.69
2023-03-05T21:36:33.226Z,101165.19
2023-03-05T21:39:05.282Z,101162.97
2023-03-05T21:41:31.756Z,101168.50
2023-03-05T21:43:58.121Z,101160.94
2023-03-05T21:46:30.545Z,101164.50
2023-03-05T21:49:01.957Z,101159.50
2023-03-05T21:51:28.267Z,101160.28
2023-03-05T21:53:54.558Z,101156.72
2023-03-05T21:56:23.191Z,101159.50
2023-03-05T21:58:51.057Z,101149.66
2023-03-05T22:01:19.697Z,101154.34
2023-03-05T22:03:49.164Z,101146.41
2023-03-05T22:06:18.376Z,101140.09
2023-03-05T22:08:45.031Z,101141.25
2023-03-05T22:11:13.187Z,101139.13
2023-03-05T22:13:42.264Z,101141.63
2023-03-05T22:16:09.688Z,101133.97
2023-03-05T22:18:38.534Z,101126.19
2023-03-05T22:21:05.533Z,101120.94
2023-03-05T22:23:36.890Z,101124.69
2023-03-05T22:26:07.322Z,101119.25
2023-03-05T22:28:35.140Z,101120.13
2023-03-05T22:31:01.645Z,101114.44
2023-03-05T22:33:28.899Z,101108.91
2023-03-05T22:36:04.171Z,101110.94
2023-03-05T22:38:30.552Z,101103.53
2023-03-05T22:40:59.201Z,101089.25
2023-03-05T22:43:25.570Z,101086.84
2023-03-05T22:45:51.953Z,101082.81
2023-03-05T22:48:18.498Z,101084.91
2023-03-05T22:50:44.867Z,101083.28
2023-03-05T22:53:12.063Z,101082.88
2023-03-05T22:55:43.130Z,101087.47
2023-03-05T22:58:11.573Z,101077.06
2023-03-05T23:00:38.065Z,101068.44
2023-03-05T23:03:04.882Z,101075.50
2023-03-05T23:05:31.170Z,101069.75
2023-03-05T23:08:05.412Z,101072.53
2023-03-05T23:10:31.805Z,101067.44
2023-03-05T23:12:59.731Z,101076.41
2023-03-05T23:15:32.462Z,101068.84
2023-03-05T23:17:59.280Z,101071.69
2023-03-05T23:20:31.368Z,101062.06
2023-03-05T23:23:03.503Z,101070.81
2023-03-05T23:25:35.739Z,101055.84
2023-03-05T23:28:02.760Z,101057.16
2023-03-05T23:30:31.030Z,101049.31
2023-03-05T23:33:04.239Z,101050.44
2023-03-05T23:35:34.165Z,101044.41
2023-03-05T23:38:04.232Z,101038.47
2023-03-05T23:40:33.721Z,101040.22
2023-03-05T23:43:00.569Z,101042.44
2023-03-05T23:45:33.423Z,101035.00
2023-03-05T23:48:04.844Z,101038.78
2023-03-05T23:50:33.915Z,101038.97
2023-03-05T23:53:01.996Z,101041.19
2023-03-05T23:55:33.073Z,101039.47
2023-03-05T23:58:00.606Z,101035.84
